Becontree, United Kingdom
Current Conditions -  °F | °C
As of 10:50 PM on Monday 24 Nov 2014 (Local Time) from EGLC Reporting Station
Haze Haze  
Wind Chill: 39°   Ceiling: Unl
Heat Index: 39°   Visibility: 2.8mi
Dew Point: 37°   Wind: 3mph
Humidity: 93%   Direction: NA
Pressure: 30.33"   Gusts: NA
Location:  51.55°N, 0.13°E
Report Text: EGLC 242250Z AUTO VRB03KT 4600 BR NCD 04/03 Q1027
Loading
Personal Weather Stations






























Interactive Weather Map New forecast layout! Learn more

10-Day Weather Forecast

Advertisements
Track Severe Weather on mobile